createdAt,value
2022-08-23T00:01:24.215Z,100515.69
2022-08-23T00:03:56.178Z,100518.59
2022-08-23T00:06:24.616Z,100497.06
2022-08-23T00:08:53.673Z,100509.69
2022-08-23T00:11:33.700Z,100522.09
2022-08-23T00:14:07.655Z,100515.47
2022-08-23T00:16:36.198Z,100513.78
2022-08-23T00:19:06.386Z,100519.19
2022-08-23T00:21:35.614Z,100514.84
2022-08-23T00:24:03.755Z,100518.56
2022-08-23T00:26:50.136Z,100511.31
2022-08-23T00:29:18.516Z,100505.53
2022-08-23T00:31:47.328Z,100493.31
2022-08-23T00:34:16.808Z,100495.16
2022-08-23T00:36:45.500Z,100477.19
2022-08-23T00:39:13.540Z,100472.84
2022-08-23T00:41:41.620Z,100491.25
2022-08-23T00:44:33.392Z,100490.84
2022-08-23T00:47:18.865Z,100487.31
2022-08-23T00:49:55.158Z,100494.34
2022-08-23T00:52:29.607Z,100495.38
2022-08-23T00:54:57.971Z,100501.16
2022-08-23T00:57:25.975Z,100507.59
2022-08-23T00:59:53.984Z,100497.66
2022-08-23T01:02:22.100Z,100497.03
2022-08-23T01:04:56.579Z,100500.97
2022-08-23T01:07:37.627Z,100499.91
2022-08-23T01:10:14.974Z,100504.88
2022-08-23T01:12:55.870Z,100507.34
2022-08-23T01:15:27.839Z,100512.09
2022-08-23T01:18:03.075Z,100506.13
2022-08-23T01:20:39.548Z,100511.06
2022-08-23T01:23:22.168Z,100473.78
2022-08-23T01:25:50.281Z,100519.94
2022-08-23T01:28:18.289Z,100519.31
2022-08-23T01:30:48.861Z,100518.47
2022-08-23T01:33:19.611Z,100520.56
2022-08-23T01:35:50.644Z,100517.66
2022-08-23T01:38:20.948Z,100505.63
2022-08-23T01:40:49.479Z,100516.22
2022-08-23T01:43:19.836Z,100515.19
2022-08-23T01:45:50.898Z,100519.31
2022-08-23T01:48:19.816Z,100513.06
2022-08-23T01:50:48.178Z,100526.34
2022-08-23T01:53:16.454Z,100518.25
2022-08-23T01:55:50.120Z,100526.50
2022-08-23T01:58:20.415Z,100516.31
2022-08-23T02:00:48.364Z,100522.94
2022-08-23T02:03:17.088Z,100535.34
2022-08-23T02:05:45.695Z,100538.03
2022-08-23T02:08:31.241Z,100528.09
2022-08-23T02:11:08.030Z,100538.84
2022-08-23T02:13:35.827Z,100533.84
2022-08-23T02:16:04.296Z,100536.94
2022-08-23T02:18:33.736Z,100534.88
2022-08-23T02:21:01.955Z,100535.72
2022-08-23T02:23:29.864Z,100543.97
2022-08-23T02:25:57.989Z,100543.13
2022-08-23T02:28:27.553Z,100546.44
2022-08-23T02:30:55.376Z,100547.25
2022-08-23T02:33:23.615Z,100532.97
2022-08-23T02:35:51.883Z,100537.31
2022-08-23T02:38:21.011Z,100541.47
2022-08-23T02:40:52.924Z,100536.94
2022-08-23T02:43:30.102Z,100543.97
2022-08-23T02:45:58.155Z,100546.44
2022-08-23T02:48:26.483Z,100550.56
2022-08-23T02:51:08.493Z,100558.41
2022-08-23T02:53:36.703Z,100552.22
2022-08-23T02:56:21.286Z,100554.66
2022-08-23T02:58:54.442Z,100538.72
2022-08-23T03:01:26.323Z,100544.50
2022-08-23T03:03:55.966Z,100551.75
2022-08-23T03:06:26.499Z,100560.84
2022-08-23T03:08:55.173Z,100553.63
2022-08-23T03:11:24.907Z,100538.88
2022-08-23T03:13:56.295Z,100560.56
2022-08-23T03:16:24.469Z,100556.00
2022-08-23T03:18:53.117Z,100555.38
2022-08-23T03:21:22.295Z,100558.69
2022-08-23T03:23:50.238Z,100559.72
2022-08-23T03:26:18.795Z,100557.66
2022-08-23T03:28:47.506Z,100546.09
2022-08-23T03:31:17.989Z,100554.13
2022-08-23T03:34:01.249Z,100555.16
2022-08-23T03:36:29.103Z,100554.53
2022-08-23T03:38:59.254Z,100558.63
2022-08-23T03:41:27.572Z,100543.72
2022-08-23T03:43:55.419Z,100559.25
2022-08-23T03:46:24.928Z,100570.56
2022-08-23T03:49:01.144Z,100572.44
2022-08-23T03:51:35.303Z,100572.41
2022-08-23T03:54:03.899Z,100566.34
2022-08-23T03:56:34.743Z,100584.34
2022-08-23T03:59:05.379Z,100592.78
2022-08-23T04:01:34.668Z,100587.44
2022-08-23T04:04:02.471Z,100584.75
2022-08-23T04:06:32.965Z,100587.44
2022-08-23T04:09:01.659Z,100593.94
2022-08-23T04:11:29.583Z,100595.16
2022-08-23T04:14:02.910Z,100600.63
2022-08-23T04:16:36.194Z,100596.81
2022-08-23T04:19:05.755Z,100604.22
2022-08-23T04:21:39.266Z,100594.22
2022-08-23T04:24:07.494Z,100586.06
2022-08-23T04:26:35.774Z,100611.97
2022-08-23T04:29:03.795Z,100609.69
2022-08-23T04:31:34.710Z,100613.84
2022-08-23T04:34:05.278Z,100621.03
2022-08-23T04:36:39.139Z,100621.44
2022-08-23T04:39:07.488Z,100623.84
2022-08-23T04:41:53.296Z,100626.16
2022-08-23T04:44:21.559Z,100629.22
2022-08-23T04:46:51.307Z,100640.84
2022-08-23T04:49:24.578Z,100628.84
2022-08-23T04:51:54.038Z,100647.88
2022-08-23T04:54:23.280Z,100650.28
2022-08-23T04:57:08.079Z,100640.34
2022-08-23T04:59:37.882Z,100649.41
2022-08-23T05:02:06.022Z,100630.38
2022-08-23T05:04:35.301Z,100651.06
2022-08-23T05:07:04.057Z,100651.69
2022-08-23T05:09:32.147Z,100645.81
2022-08-23T05:12:00.137Z,100652.97
2022-08-23T05:14:29.640Z,100657.78
2022-08-23T05:16:57.447Z,100662.31
2022-08-23T05:19:26.222Z,100668.41
2022-08-23T05:21:57.177Z,100668.41
2022-08-23T05:24:34.846Z,100674.06
2022-08-23T05:27:02.771Z,100672.47
2022-08-23T05:29:31.018Z,100674.31
2022-08-23T05:31:58.939Z,100653.34
2022-08-23T05:34:27.088Z,100671.88
2022-08-23T05:36:58.956Z,100668.16
2022-08-23T05:39:36.349Z,100676.13
2022-08-23T05:42:13.886Z,100674.69
2022-08-23T05:44:42.688Z,100685.06
2022-08-23T05:47:13.782Z,100682.81
2022-08-23T05:49:56.824Z,100678.66
2022-08-23T05:52:27.437Z,100684.28
2022-08-23T05:54:55.335Z,100692.34
2022-08-23T05:57:42.139Z,100679.31
2022-08-23T06:00:14.401Z,100691.97
2022-08-23T06:02:49.208Z,100700.25
2022-08-23T06:05:19.610Z,100693.47
2022-08-23T06:07:50.224Z,100695.31
2022-08-23T06:10:21.418Z,100706.13
2022-08-23T06:13:03.159Z,100703.66
2022-08-23T06:15:31.243Z,100704.75
2022-08-23T06:17:59.725Z,100706.03
2022-08-23T06:20:28.024Z,100707.28
2022-08-23T06:23:08.788Z,100704.66
2022-08-23T06:25:40.817Z,100712.78
2022-08-23T06:28:13.374Z,100704.94
2022-08-23T06:30:43.394Z,100704.75
2022-08-23T06:33:21.972Z,100701.09
2022-08-23T06:36:10.851Z,100709.19
2022-08-23T06:39:00.307Z,100711.13
2022-08-23T06:42:02.035Z,100716.31
2022-08-23T06:44:32.549Z,100726.03
2022-08-23T06:47:12.182Z,100722.38
2022-08-23T06:49:40.303Z,100723.00
2022-08-23T06:52:24.060Z,100731.09
2022-08-23T06:55:02.304Z,100735.03
2022-08-23T06:57:41.846Z,100739.41
2022-08-23T07:00:28.304Z,100732.41
2022-08-23T07:03:28.592Z,100723.31
2022-08-23T07:06:16.740Z,100729.13
2022-08-23T07:08:45.756Z,100730.59
2022-08-23T07:11:15.200Z,100731.19
2022-08-23T07:13:43.252Z,100734.13
2022-08-23T07:16:12.162Z,100733.50
2022-08-23T07:18:40.725Z,100734.53
2022-08-23T07:21:14.364Z,100736.56
2022-08-23T07:23:46.645Z,100743.03
2022-08-23T07:26:18.631Z,100737.44
2022-08-23T07:28:46.575Z,100748.44
2022-08-23T07:31:19.110Z,100750.75
2022-08-23T07:33:48.336Z,100755.28
2022-08-23T07:36:23.318Z,100756.94
2022-08-23T07:38:53.748Z,100758.00
2022-08-23T07:41:25.352Z,100758.00
2022-08-23T07:43:54.957Z,100761.97
2022-08-23T07:46:26.833Z,100749.31
2022-08-23T07:48:55.188Z,100758.66
2022-08-23T07:51:32.834Z,100766.53
2022-08-23T07:54:02.776Z,100764.91
2022-08-23T07:56:32.314Z,100764.94
2022-08-23T07:59:11.431Z,100771.97
2022-08-23T08:01:43.759Z,100727.19
2022-08-23T08:04:13.075Z,100772.56
2022-08-23T08:06:59.825Z,100767.00
2022-08-23T08:09:35.481Z,100769.09
2022-08-23T08:12:05.513Z,100759.94
2022-08-23T08:14:34.306Z,100767.03
2022-08-23T08:17:06.852Z,100765.78
2022-08-23T08:19:48.840Z,100774.88
2022-08-23T08:22:35.465Z,100767.03
2022-08-23T08:25:26.170Z,100768.06
2022-08-23T08:27:56.938Z,100748.41
2022-08-23T08:30:24.816Z,100764.75
2022-08-23T08:32:52.908Z,100759.19
2022-08-23T08:35:22.654Z,100767.06
2022-08-23T08:37:50.777Z,100769.97
2022-08-23T08:40:26.055Z,100771.00
2022-08-23T08:43:16.505Z,100771.63
2022-08-23T08:45:58.909Z,100774.53
2022-08-23T08:48:34.074Z,100764.19
2022-08-23T08:51:07.214Z,100770.22
2022-08-23T08:53:39.496Z,100765.66
2022-08-23T08:56:20.872Z,100766.28
2022-08-23T08:58:59.880Z,100767.91
2022-08-23T09:01:31.112Z,100767.31
2022-08-23T09:03:59.326Z,100765.25
2022-08-23T09:06:35.243Z,100767.53
2022-08-23T09:09:22.139Z,100772.50
2022-08-23T09:12:02.302Z,100735.63
2022-08-23T09:14:53.311Z,100774.16
2022-08-23T09:17:26.367Z,100774.16
2022-08-23T09:20:00.324Z,100778.06
2022-08-23T09:22:37.726Z,100778.28
2022-08-23T09:25:13.148Z,100773.91
2022-08-23T09:27:58.857Z,100770.81
2022-08-23T09:30:50.143Z,100780.56
2022-08-23T09:33:21.048Z,100781.56
2022-08-23T09:36:06.804Z,100774.13
2022-08-23T09:38:39.582Z,100768.50
2022-08-23T09:41:19.189Z,100775.75
2022-08-23T09:43:50.416Z,100773.50
2022-08-23T09:46:30.372Z,100766.84
2022-08-23T09:49:01.149Z,100763.31
2022-08-23T09:51:37.752Z,100768.72
2022-08-23T09:54:13.194Z,100762.91
2022-08-23T09:56:45.080Z,100767.63
2022-08-23T09:59:26.535Z,100731.78
2022-08-23T10:02:02.692Z,100762.84
2022-08-23T10:04:42.159Z,100753.25
2022-08-23T10:07:33.903Z,100758.78
2022-08-23T10:10:24.441Z,100766.84
2022-08-23T10:12:56.062Z,100761.00
2022-08-23T10:15:45.157Z,100757.06
2022-08-23T10:18:29.581Z,100763.84
2022-08-23T10:21:06.250Z,100761.28
2022-08-23T10:23:45.487Z,100755.63
2022-08-23T10:26:24.844Z,100762.06
2022-08-23T10:29:17.096Z,100759.13
2022-08-23T10:31:59.023Z,100764.31
2022-08-23T10:34:48.402Z,100753.53
2022-08-23T10:37:39.440Z,100759.97
2022-08-23T10:40:16.397Z,100756.22
2022-08-23T10:42:55.342Z,100757.44
2022-08-23T10:45:27.583Z,100765.94
2022-08-23T10:48:14.910Z,100773.38
2022-08-23T10:50:54.639Z,100763.69
2022-08-23T10:53:37.409Z,100759.09
2022-08-23T10:56:07.920Z,100761.41
2022-08-23T10:58:47.394Z,100756.69
2022-08-23T11:01:19.017Z,100760.25
2022-08-23T11:03:56.395Z,100756.41
2022-08-23T11:06:45.886Z,100758.34
2022-08-23T11:09:50.973Z,100753.47
2022-08-23T11:12:29.143Z,100753.53
2022-08-23T11:15:20.598Z,100747.03
2022-08-23T11:18:39.176Z,100746.44
2022-08-23T11:21:12.420Z,100751.03
2022-08-23T11:23:55.923Z,100749.63
2022-08-23T11:27:07.424Z,100742.53
2022-08-23T11:29:43.565Z,100728.66
2022-08-23T11:32:45.395Z,100743.63
2022-08-23T11:35:36.915Z,100737.34
2022-08-23T11:38:09.288Z,100747.38
2022-08-23T11:41:12.615Z,100750.56
2022-08-23T11:43:42.868Z,100741.97
2022-08-23T11:46:35.847Z,100735.22
2022-08-23T11:49:41.040Z,100718.06
2022-08-23T11:52:38.641Z,100727.22
2022-08-23T11:55:24.860Z,100746.53
2022-08-23T11:58:12.210Z,100742.91
2022-08-23T12:00:57.391Z,100737.22
2022-08-23T12:03:33.518Z,100735.72
2022-08-23T12:06:24.806Z,100737.47
2022-08-23T12:09:01.678Z,100740.88
2022-08-23T12:12:00.741Z,100741.91
2022-08-23T12:14:50.722Z,100729.41
2022-08-23T12:17:53.415Z,100728.88
2022-08-23T12:20:30.068Z,100732.66
2022-08-23T12:23:07.754Z,100722.13
2022-08-23T12:25:36.215Z,100719.13
2022-08-23T12:28:27.609Z,100721.13
2022-08-23T12:31:07.866Z,100720.44
2022-08-23T12:33:54.595Z,100718.50
2022-08-23T12:36:31.244Z,100722.94
2022-08-23T12:39:15.758Z,100729.97
2022-08-23T12:41:56.667Z,100721.13
2022-08-23T12:44:27.921Z,100719.59
2022-08-23T12:46:58.092Z,100724.50
2022-08-23T12:49:29.591Z,100728.38
2022-08-23T12:51:59.177Z,100723.94
2022-08-23T12:54:39.587Z,100721.66
2022-08-23T12:57:11.643Z,100711.06
2022-08-23T12:59:52.915Z,100700.44
2022-08-23T13:02:33.145Z,100723.94
2022-08-23T13:05:13.464Z,100720.13
2022-08-23T13:07:42.239Z,100732.72
2022-08-23T13:10:12.082Z,100719.50
2022-08-23T13:12:42.237Z,100731.59
2022-08-23T13:15:10.825Z,100728.84
2022-08-23T13:17:41.004Z,100719.00
2022-08-23T13:20:21.931Z,100720.16
2022-08-23T13:23:01.794Z,100725.34
2022-08-23T13:25:37.895Z,100723.66
2022-08-23T13:28:09.092Z,100718.00
2022-08-23T13:30:39.092Z,100699.97
2022-08-23T13:33:24.510Z,100714.41
2022-08-23T13:36:11.460Z,100715.13
2022-08-23T13:38:43.251Z,100701.78
2022-08-23T13:41:14.046Z,100702.44
2022-08-23T13:43:49.018Z,100701.72
2022-08-23T13:46:22.671Z,100701.69
2022-08-23T13:48:59.163Z,100703.75
2022-08-23T13:51:30.479Z,100701.00
2022-08-23T13:54:01.009Z,100706.53
2022-08-23T13:56:30.651Z,100700.00
2022-08-23T13:59:01.294Z,100699.47
2022-08-23T14:01:30.100Z,100701.38
2022-08-23T14:03:59.350Z,100682.75
2022-08-23T14:06:27.188Z,100691.72
2022-08-23T14:08:55.249Z,100696.91
2022-08-23T14:11:23.330Z,100698.03
2022-08-23T14:13:51.627Z,100697.41
2022-08-23T14:16:39.853Z,100703.38
2022-08-23T14:19:16.507Z,100696.38
2022-08-23T14:21:47.130Z,100699.09
2022-08-23T14:24:15.196Z,100691.72
2022-08-23T14:26:50.196Z,100700.91
2022-08-23T14:29:19.711Z,100701.16
2022-08-23T14:31:50.715Z,100698.84
2022-08-23T14:34:20.488Z,100700.06
2022-08-23T14:39:36.235Z,100693.94
2022-08-23T14:42:05.781Z,100695.59
2022-08-23T14:44:35.887Z,100689.13
2022-08-23T14:47:05.407Z,100698.69
2022-08-23T14:49:35.818Z,100696.22
2022-08-23T14:52:04.495Z,100702.34
2022-08-23T14:54:32.947Z,100694.84
2022-08-23T14:57:00.811Z,100694.03
2022-08-23T14:59:28.587Z,100686.19
2022-08-23T15:01:57.623Z,100695.06
2022-08-23T15:04:34.055Z,100689.59
2022-08-23T15:07:17.611Z,100691.34
2022-08-23T15:09:46.400Z,100691.09
2022-08-23T15:15:02.307Z,100685.59
2022-08-23T15:17:31.677Z,100690.94
2022-08-23T15:20:00.118Z,100686.06
2022-08-23T15:22:29.338Z,100687.38
2022-08-23T15:24:57.329Z,100687.56
2022-08-23T15:27:25.803Z,100686.16
2022-08-23T15:29:54.169Z,100664.75
2022-08-23T15:32:22.752Z,100683.41
2022-08-23T15:34:51.734Z,100678.34
2022-08-23T15:37:22.557Z,100682.97
2022-08-23T15:39:52.091Z,100679.66
2022-08-23T15:42:20.765Z,100680.19
2022-08-23T15:44:49.313Z,100671.97
2022-08-23T15:47:21.403Z,100673.69
2022-08-23T15:49:50.058Z,100669.16
2022-08-23T15:52:18.580Z,100665.22
2022-08-23T15:54:47.258Z,100676.13
2022-08-23T15:57:20.331Z,100675.97
2022-08-23T15:59:48.681Z,100666.94
2022-08-23T16:02:16.993Z,100666.75
2022-08-23T16:04:45.435Z,100666.84
2022-08-23T16:07:18.921Z,100659.50
2022-08-23T16:09:47.372Z,100672.72
2022-08-23T16:12:17.096Z,100668.50
2022-08-23T16:14:44.984Z,100663.25
2022-08-23T16:17:14.966Z,100664.13
2022-08-23T16:19:44.228Z,100669.75
2022-08-23T16:22:12.387Z,100660.19
2022-08-23T16:24:40.306Z,100664.19
2022-08-23T16:27:09.043Z,100651.72
2022-08-23T16:29:40.892Z,100659.56
2022-08-23T16:32:09.496Z,100664.81
2022-08-23T16:34:37.387Z,100661.78
2022-08-23T16:37:09.594Z,100642.19
2022-08-23T16:39:38.375Z,100668.38
2022-08-23T16:42:07.481Z,100663.53
2022-08-23T16:44:35.834Z,100661.13
2022-08-23T16:47:07.241Z,100670.91
2022-08-23T16:49:35.096Z,100672.31
2022-08-23T16:52:03.217Z,100677.25
2022-08-23T16:54:31.303Z,100684.84
2022-08-23T16:56:59.062Z,100672.66
2022-08-23T16:59:26.865Z,100666.31
2022-08-23T17:01:57.647Z,100670.84
2022-08-23T17:04:30.456Z,100672.97
2022-08-23T17:06:59.327Z,100676.41
2022-08-23T17:09:29.501Z,100666.84
2022-08-23T17:11:59.108Z,100664.72
2022-08-23T17:14:28.272Z,100672.72
2022-08-23T17:16:56.117Z,100670.63
2022-08-23T17:19:24.810Z,100667.72
2022-08-23T17:21:54.200Z,100684.72
2022-08-23T17:24:24.379Z,100655.31
2022-08-23T17:26:52.266Z,100685.97
2022-08-23T17:29:20.443Z,100682.06
2022-08-23T17:31:48.664Z,100685.84
2022-08-23T17:34:16.639Z,100685.19
2022-08-23T17:36:47.696Z,100688.63
2022-08-23T17:39:19.888Z,100692.56
2022-08-23T17:41:48.048Z,100679.69
2022-08-23T17:44:16.062Z,100695.75
2022-08-23T17:46:46.393Z,100698.09
2022-08-23T17:49:15.317Z,100696.56
2022-08-23T17:51:44.215Z,100695.91
2022-08-23T17:54:16.080Z,100678.69
2022-08-23T17:56:49.916Z,100699.53
2022-08-23T17:59:19.120Z,100688.09
2022-08-23T18:01:47.198Z,100703.91
2022-08-23T18:04:15.091Z,100702.97
2022-08-23T18:06:42.920Z,100711.00
2022-08-23T18:09:11.948Z,100708.63
2022-08-23T18:11:39.939Z,100712.78
2022-08-23T18:14:09.331Z,100696.38
2022-08-23T18:16:38.477Z,100693.66
2022-08-23T18:19:07.376Z,100705.66
2022-08-23T18:21:40.542Z,100704.34
2022-08-23T18:24:09.320Z,100718.03
2022-08-23T18:26:57.653Z,100716.25
2022-08-23T18:29:27.071Z,100735.06
2022-08-23T18:31:55.019Z,100730.38
2022-08-23T18:34:23.278Z,100736.63
2022-08-23T18:36:51.279Z,100735.44
2022-08-23T18:39:31.473Z,100736.47
2022-08-23T18:42:00.557Z,100742.25
2022-08-23T18:44:30.394Z,100737.16
2022-08-23T18:47:01.791Z,100718.44
2022-08-23T18:49:29.848Z,100752.06
2022-08-23T18:51:57.699Z,100745.91
2022-08-23T18:54:25.577Z,100744.69
2022-08-23T18:56:53.382Z,100754.47
2022-08-23T18:59:21.298Z,100752.69
2022-08-23T19:01:51.199Z,100761.47
2022-08-23T19:04:19.467Z,100756.97
2022-08-23T19:06:48.007Z,100760.59
2022-08-23T19:09:16.041Z,100763.75
2022-08-23T19:11:44.477Z,100768.19
2022-08-23T19:14:12.805Z,100771.22
2022-08-23T19:16:45.732Z,100772.31
2022-08-23T19:19:18.749Z,100772.81
2022-08-23T19:21:46.668Z,100778.06
2022-08-23T19:24:14.805Z,100777.44
2022-08-23T19:26:47.310Z,100778.56
2022-08-23T19:29:16.000Z,100774.63
2022-08-23T19:31:47.767Z,100776.13
2022-08-23T19:34:17.912Z,100783.00
2022-08-23T19:36:51.168Z,100782.88
2022-08-23T19:39:26.943Z,100777.09
2022-08-23T19:41:55.223Z,100775.47
2022-08-23T19:44:23.686Z,100783.84
2022-08-23T19:46:51.588Z,100787.81
2022-08-23T19:49:20.814Z,100784.50
2022-08-23T19:51:48.569Z,100786.81
2022-08-23T19:54:17.307Z,100790.84
2022-08-23T19:56:48.412Z,100779.22
2022-08-23T19:59:20.261Z,100786.09
2022-08-23T20:01:49.182Z,100789.84
2022-08-23T20:04:17.380Z,100788.41
2022-08-23T20:06:46.808Z,100792.00
2022-08-23T20:09:14.563Z,100799.69
2022-08-23T20:11:42.757Z,100797.41
2022-08-23T20:14:11.087Z,100805.94
2022-08-23T20:16:41.051Z,100806.38
2022-08-23T20:19:12.646Z,100813.91
2022-08-23T20:21:41.752Z,100804.56
2022-08-23T20:24:12.292Z,100779.94
2022-08-23T20:26:43.586Z,100814.16
2022-08-23T20:29:14.078Z,100822.25
2022-08-23T20:31:50.831Z,100820.44
2022-08-23T20:34:19.062Z,100818.16
2022-08-23T20:36:48.059Z,100815.88
2022-08-23T20:39:21.838Z,100816.94
2022-08-23T20:41:52.161Z,100819.00
2022-08-23T20:44:20.506Z,100811.13
2022-08-23T20:46:53.220Z,100815.09
2022-08-23T20:49:22.789Z,100816.59
2022-08-23T20:51:51.051Z,100812.03
2022-08-23T20:54:22.057Z,100823.66
2022-08-23T20:56:51.803Z,100825.75
2022-08-23T20:59:21.188Z,100797.16
2022-08-23T21:01:51.561Z,100827.44
2022-08-23T21:04:19.505Z,100825.78
2022-08-23T21:06:51.229Z,100820.00
2022-08-23T21:09:23.496Z,100822.91
2022-08-23T21:11:55.485Z,100827.47
2022-08-23T21:14:23.288Z,100790.41
2022-08-23T21:16:51.119Z,100805.13
2022-08-23T21:19:19.806Z,100819.19
2022-08-23T21:21:47.688Z,100828.13
2022-08-23T21:24:16.509Z,100824.59
2022-08-23T21:26:45.672Z,100826.66
2022-08-23T21:29:13.571Z,100827.91
2022-08-23T21:31:41.366Z,100819.25
2022-08-23T21:34:09.734Z,100802.66
2022-08-23T21:36:37.814Z,100834.56
2022-08-23T21:39:06.308Z,100840.59
2022-08-23T21:41:39.093Z,100832.91
2022-08-23T21:44:11.213Z,100832.13
2022-08-23T21:46:39.281Z,100832.94
2022-08-23T21:49:08.230Z,100832.94
2022-08-23T21:51:40.467Z,100833.56
2022-08-23T21:54:09.971Z,100833.00
2022-08-23T21:56:39.086Z,100835.28
2022-08-23T21:59:10.033Z,100830.72
2022-08-23T22:01:38.151Z,100827.59
2022-08-23T22:04:08.814Z,100821.78
2022-08-23T22:06:38.175Z,100826.34
2022-08-23T22:09:06.380Z,100819.91
2022-08-23T22:11:36.182Z,100835.06
2022-08-23T22:14:04.112Z,100834.66
2022-08-23T22:16:33.279Z,100829.25
2022-08-23T22:19:01.084Z,100836.72
2022-08-23T22:21:28.868Z,100837.56
2022-08-23T22:24:03.245Z,100826.75
2022-08-23T22:26:31.220Z,100831.78
2022-08-23T22:28:59.200Z,100838.41
2022-08-23T22:31:27.257Z,100844.44
2022-08-23T22:33:56.500Z,100837.78
2022-08-23T22:36:25.331Z,100836.78
2022-08-23T22:38:53.131Z,100837.16
2022-08-23T22:41:23.923Z,100838.84
2022-08-23T22:43:54.287Z,100838.84
2022-08-23T22:46:22.949Z,100829.47
2022-08-23T22:48:51.050Z,100834.25
2022-08-23T22:51:22.649Z,100835.50
2022-08-23T22:53:52.740Z,100839.88
2022-08-23T22:56:24.624Z,100840.06
2022-08-23T22:58:54.846Z,100789.47
2022-08-23T23:01:26.008Z,100845.03
2022-08-23T23:03:54.744Z,100840.88
2022-08-23T23:06:24.820Z,100832.19
2022-08-23T23:08:53.393Z,100838.84
2022-08-23T23:11:23.432Z,100833.84
2022-08-23T23:13:51.856Z,100801.09
2022-08-23T23:16:22.659Z,100843.19
2022-08-23T23:19:05.205Z,100841.94
2022-08-23T23:21:36.291Z,100836.97
2022-08-23T23:24:04.904Z,100825.13
2022-08-23T23:26:32.748Z,100840.69
2022-08-23T23:29:00.772Z,100837.38
2022-08-23T23:31:28.639Z,100841.31
2022-08-23T23:33:56.448Z,100836.94
2022-08-23T23:36:24.544Z,100828.66
2022-08-23T23:38:53.882Z,100800.88
2022-08-23T23:41:22.351Z,100838.00
2022-08-23T23:43:50.212Z,100831.56
2022-08-23T23:46:20.401Z,100837.38
2022-08-23T23:48:50.134Z,100831.38
2022-08-23T23:51:20.330Z,100835.50
2022-08-23T23:53:48.422Z,100833.84
2022-08-23T23:56:18.651Z,100840.47
2022-08-23T23:58:46.781Z,100835.91
